Time;durP1;ratioP1;P1;durP2;ratioP2;P2;SDS_P1;SDS_P2;PMS_P1;PMS_P2;Temp;Humidity;BMP_temperature;BMP_pressure;BME280_temperature;BME280_humidity;BME280_pressure;Samples;Min_cycle;Max_cycle;Signal;HPM_P1;HPM_P2
2022/02/21 00:01:19;;;;;;;0.80;0.80;;;7.70;99.90;;;;;;5056293;28;20178;-77
2022/02/21 00:03:45;;;;;;;1.07;0.97;;;7.40;99.90;;;;;;5056901;28;20217;-78
2022/02/21 00:06:10;;;;;;;1.00;0.90;;;7.50;99.90;;;;;;5057105;28;20294;-79
2022/02/21 00:08:36;;;;;;;1.03;1.00;;;7.50;99.90;;;;;;5057967;28;20166;-78
2022/02/21 00:11:02;;;;;;;0.80;0.80;;;7.50;99.90;;;;;;5055244;28;20246;-78
2022/02/21 00:13:29;;;;;;;1.00;0.90;;;7.60;99.90;;;;;;5057382;28;20515;-78
2022/02/21 00:15:54;;;;;;;1.17;1.07;;;7.50;99.90;;;;;;5055909;28;20192;-78
2022/02/21 00:18:20;;;;;;;1.23;0.90;;;7.80;99.90;;;;;;5054013;28;20173;-79
2022/02/21 00:20:45;;;;;;;0.80;0.80;;;7.70;99.90;;;;;;5055301;28;20247;-78
2022/02/21 00:23:13;;;;;;;0.77;0.77;;;8.00;99.90;;;;;;5054702;28;20173;-78
2022/02/21 00:25:39;;;;;;;1.10;1.00;;;7.60;99.90;;;;;;5056292;28;20186;-78
2022/02/21 00:28:04;;;;;;;1.90;1.10;;;7.80;99.90;;;;;;5054148;28;20240;-78
2022/02/21 00:30:31;;;;;;;1.13;0.67;;;;;;;;;;5056885;28;20677;-79
2022/02/21 00:32:56;;;;;;;1.20;0.77;;;7.90;99.90;;;;;;5055559;28;20650;-79
2022/02/21 00:35:22;;;;;;;1.07;1.00;;;7.60;99.90;;;;;;5057556;28;20174;-79
2022/02/21 00:37:48;;;;;;;1.30;1.00;;;7.60;99.90;;;;;;5057047;28;20180;-78
2022/02/21 00:40:13;;;;;;;1.20;1.17;;;7.50;99.90;;;;;;5061899;28;20275;-79
2022/02/21 00:42:39;;;;;;;1.00;1.00;;;7.60;99.90;;;;;;5062303;28;20288;-78
2022/02/21 00:45:07;;;;;;;1.20;1.10;;;7.50;99.90;;;;;;5060932;28;20672;-78
2022/02/21 00:47:36;;;;;;;0.80;0.80;;;7.60;99.90;;;;;;5060748;28;20197;-78
2022/02/21 00:50:02;;;;;;;1.83;0.90;;;7.60;99.90;;;;;;5060129;28;20197;-79
2022/02/21 00:52:28;;;;;;;0.90;0.90;;;7.70;99.90;;;;;;5059861;28;20262;-79
2022/02/21 00:54:54;;;;;;;1.00;1.00;;;;;;;;;;5057115;28;20642;-78
2022/02/21 00:57:20;;;;;;;1.47;1.10;;;7.70;99.90;;;;;;5057657;28;20239;-77
2022/02/21 00:59:46;;;;;;;0.97;0.90;;;7.70;99.90;;;;;;5058999;28;20209;-77
2022/02/21 01:02:11;;;;;;;0.97;0.90;;;7.60;99.90;;;;;;5058518;28;20647;-79
2022/02/21 01:04:38;;;;;;;0.80;0.80;;;7.80;99.90;;;;;;5057987;28;20173;-78
2022/02/21 01:07:04;;;;;;;1.10;1.00;;;8.00;99.90;;;;;;5057597;28;20196;-79
2022/02/21 01:09:30;;;;;;;1.03;1.03;;;7.70;99.90;;;;;;5057803;28;20193;-79
2022/02/21 01:11:55;;;;;;;1.60;1.30;;;7.80;99.90;;;;;;5062069;28;20173;-79
2022/02/21 01:14:21;;;;;;;1.43;0.90;;;7.70;99.90;;;;;;5061870;28;20198;-79
2022/02/21 01:16:47;;;;;;;1.10;1.00;;;;;;;;;;5062194;28;20177;-79
2022/02/21 01:19:13;;;;;;;0.90;0.90;;;;;;;;;;5061348;28;20628;-79
2022/02/21 01:21:39;;;;;;;1.20;1.10;;;7.90;99.90;;;;;;5063895;28;20210;-79
2022/02/21 01:24:04;;;;;;;1.33;1.23;;;7.90;99.90;;;;;;5061444;28;20185;-79
2022/02/21 01:26:30;;;;;;;1.77;1.00;;;7.50;99.90;;;;;;5060984;28;20201;-79
2022/02/21 01:28:56;;;;;;;1.40;0.80;;;7.90;99.90;;;;;;5063326;28;20170;-78
2022/02/21 01:31:22;;;;;;;1.53;0.73;;;7.90;99.90;;;;;;5063138;28;20239;-78
2022/02/21 01:33:47;;;;;;;1.47;1.07;;;7.60;99.90;;;;;;5059759;28;20178;-79
2022/02/21 01:36:13;;;;;;;1.03;0.87;;;8.10;99.90;;;;;;5061088;28;20182;-78
2022/02/21 01:38:39;;;;;;;1.47;0.90;;;;;;;;;;5058314;28;20181;-79
2022/02/21 01:41:05;;;;;;;2.07;1.17;;;8.10;99.90;;;;;;5061763;28;20208;-79
2022/02/21 01:43:31;;;;;;;1.20;1.00;;;7.70;99.90;;;;;;5059418;28;20182;-78
2022/02/21 01:45:57;;;;;;;1.00;0.83;;;8.20;99.90;;;;;;5063349;28;20188;-78
2022/02/21 01:48:23;;;;;;;0.90;0.90;;;8.00;99.90;;;;;;5060709;28;20174;-80
2022/02/21 01:50:49;;;;;;;3.30;1.03;;;7.80;99.90;;;;;;5057368;28;20237;-79
2022/02/21 01:53:15;;;;;;;1.10;1.00;;;7.90;99.90;;;;;;5068832;28;20176;-79
2022/02/21 01:55:43;;;;;;;1.63;1.10;;;7.90;99.90;;;;;;5057775;28;20185;-79
2022/02/21 01:58:10;;;;;;;1.07;0.97;;;8.00;99.90;;;;;;5060233;28;20184;-79
2022/02/21 02:00:36;;;;;;;0.80;0.80;;;7.80;99.90;;;;;;5059661;28;20694;-79
2022/02/21 02:03:02;;;;;;;3.10;1.13;;;8.10;99.90;;;;;;5062870;28;20177;-79
2022/02/21 02:05:28;;;;;;;1.00;0.90;;;8.00;99.90;;;;;;5061335;28;20320;-79
2022/02/21 02:07:54;;;;;;;1.27;1.10;;;;;;;;;;5061931;28;20255;-79
2022/02/21 02:10:20;;;;;;;1.73;0.90;;;8.00;99.90;;;;;;5059252;28;20206;-79
2022/02/21 02:12:46;;;;;;;2.00;0.90;;;;;;;;;;5061673;28;20228;-78
2022/02/21 02:15:13;;;;;;;1.93;1.07;;;8.00;99.90;;;;;;5062743;28;20172;-78
2022/02/21 02:17:40;;;;;;;3.10;1.20;;;7.90;99.90;;;;;;5057782;28;20188;-79
2022/02/21 02:20:06;;;;;;;0.90;0.90;;;7.90;99.90;;;;;;5059554;28;20201;-79
2022/02/21 02:22:32;;;;;;;1.17;1.10;;;8.00;99.90;;;;;;5059685;28;20174;-79
2022/02/21 02:24:58;;;;;;;5.20;1.20;;;8.10;99.90;;;;;;5063801;28;20197;-79
2022/02/21 02:27:25;;;;;;;0.67;0.67;;;8.10;99.90;;;;;;5060408;28;20297;-79
2022/02/21 02:29:53;;;;;;;0.60;0.60;;;8.10;99.90;;;;;;5059661;28;20228;-79
2022/02/21 02:32:21;;;;;;;1.13;1.03;;;8.20;99.90;;;;;;5063052;28;20187;-79
2022/02/21 02:34:47;;;;;;;8.50;1.07;;;8.10;99.90;;;;;;5062833;28;20174;-80
2022/02/21 02:37:14;;;;;;;1.73;1.27;;;8.10;99.90;;;;;;5059186;28;20181;-79
2022/02/21 02:39:41;;;;;;;1.53;1.10;;;8.20;99.90;;;;;;5061461;28;20209;-79
2022/02/21 02:42:08;;;;;;;1.00;0.80;;;8.20;99.90;;;;;;5060383;28;20640;-78
2022/02/21 02:44:34;;;;;;;2.67;1.00;;;8.30;99.90;;;;;;5059458;28;20222;-79
2022/02/21 02:47:00;;;;;;;2.43;1.00;;;8.20;99.90;;;;;;5058355;28;20206;-78
2022/02/21 02:49:25;;;;;;;1.27;1.00;;;8.10;99.90;;;;;;5059625;28;20193;-79
2022/02/21 02:51:51;;;;;;;1.30;1.10;;;8.30;99.90;;;;;;5058182;28;20183;-79
2022/02/21 02:54:17;;;;;;;2.23;1.00;;;8.20;99.90;;;;;;5056810;28;20641;-78
2022/02/21 02:56:45;;;;;;;1.07;1.00;;;8.30;99.90;;;;;;5059985;28;20199;-78
2022/02/21 02:59:11;;;;;;;1.30;1.20;;;8.30;99.90;;;;;;5059707;28;20170;-78
2022/02/21 03:01:39;;;;;;;2.60;1.00;;;;;;;;;;5057923;28;20178;-79
2022/02/21 03:04:06;;;;;;;1.37;1.10;;;8.30;99.90;;;;;;5057749;28;20182;-79
2022/02/21 03:06:32;;;;;;;1.40;1.00;;;8.40;99.90;;;;;;5057973;28;20201;-78
2022/02/21 03:08:58;;;;;;;1.20;1.00;;;8.40;99.90;;;;;;5059671;28;20170;-78
2022/02/21 03:11:24;;;;;;;0.90;0.90;;;8.20;99.90;;;;;;5059455;28;20181;-79
2022/02/21 03:13:50;;;;;;;1.03;0.60;;;;;;;;;;5058639;28;20262;-78
2022/02/21 03:16:17;;;;;;;1.13;0.60;;;8.40;99.90;;;;;;5056301;28;20570;-79
2022/02/21 03:18:43;;;;;;;4.00;0.60;;;8.00;99.90;;;;;;5057888;28;20182;-77
2022/02/21 03:21:09;;;;;;;1.27;0.87;;;8.10;99.90;;;;;;5057379;28;20563;-78
2022/02/21 03:23:34;;;;;;;1.57;0.83;;;7.80;99.90;;;;;;5056704;28;20182;-78
2022/02/21 03:26:00;;;;;;;1.27;0.93;;;;;;;;;;5056747;28;20191;-78
2022/02/21 03:28:26;;;;;;;0.87;0.67;;;7.90;99.90;;;;;;5057835;28;20175;-78
2022/02/21 03:30:53;;;;;;;1.10;0.77;;;;;;;;;;5056973;28;20277;-78
2022/02/21 03:33:19;;;;;;;2.30;1.53;;;7.80;99.90;;;;;;5057222;28;20176;-78
2022/02/21 03:35:44;;;;;;;0.60;0.60;;;7.50;99.90;;;;;;5055687;28;20174;-78
2022/02/21 03:38:10;;;;;;;0.97;0.73;;;7.60;99.90;;;;;;5056077;28;20205;-79
2022/02/21 03:40:36;;;;;;;0.70;0.53;;;7.50;99.90;;;;;;5057306;28;20556;-77
2022/02/21 03:43:02;;;;;;;1.00;0.83;;;7.40;99.90;;;;;;5058202;28;20528;-78
2022/02/21 03:45:27;;;;;;;1.57;0.87;;;7.20;99.90;;;;;;5057183;28;20183;-78
2022/02/21 03:47:53;;;;;;;2.87;1.00;;;;;;;;;;5056110;28;20287;-78
2022/02/21 03:50:20;;;;;;;0.90;0.70;;;7.00;99.90;;;;;;5058065;28;20558;-79
2022/02/21 03:52:46;;;;;;;0.60;0.60;;;7.10;99.90;;;;;;5056326;28;20175;-78
2022/02/21 03:55:12;;;;;;;0.90;0.70;;;7.10;99.90;;;;;;5056809;28;20540;-78
2022/02/21 03:57:38;;;;;;;1.00;0.90;;;7.00;99.90;;;;;;5056510;28;20665;-78
2022/02/21 04:00:06;;;;;;;0.70;0.70;;;6.80;99.90;;;;;;5057393;28;20288;-78
2022/02/21 04:02:32;;;;;;;0.70;0.70;;;6.70;99.90;;;;;;5057207;28;20237;-79
2022/02/21 04:05:00;;;;;;;1.47;0.80;;;6.90;99.90;;;;;;5055687;28;20273;-79
2022/02/21 04:07:27;;;;;;;1.17;0.77;;;6.50;99.90;;;;;;5056902;28;20630;-78
2022/02/21 04:09:52;;;;;;;0.60;0.60;;;6.60;99.90;;;;;;5054419;28;20197;-78
2022/02/21 04:12:18;;;;;;;2.70;1.13;;;6.50;99.90;;;;;;5054947;28;20261;-78
2022/02/21 04:14:43;;;;;;;0.70;0.70;;;6.50;99.90;;;;;;5053292;28;20527;-78
2022/02/21 04:17:09;;;;;;;1.60;1.13;;;6.30;99.90;;;;;;5054755;28;20293;-78
2022/02/21 04:19:35;;;;;;;0.90;0.80;;;6.40;99.90;;;;;;5054091;28;20204;-78
2022/02/21 04:22:00;;;;;;;3.00;0.80;;;6.20;99.90;;;;;;5054165;28;20174;-78
2022/02/21 04:24:26;;;;;;;0.90;0.90;;;;;;;;;;5055035;28;20178;-79
2022/02/21 04:26:52;;;;;;;9.13;1.13;;;;;;;;;;5055732;28;20202;-79
2022/02/21 04:29:18;;;;;;;1.10;1.00;;;6.30;99.90;;;;;;5055551;28;20249;-78
2022/02/21 04:31:44;;;;;;;1.00;1.00;;;6.20;99.90;;;;;;5056394;28;20574;-77
2022/02/21 04:34:10;;;;;;;1.20;1.07;;;;;;;;;;5056637;28;20260;-78
2022/02/21 04:36:38;;;;;;;1.10;0.70;;;6.30;99.90;;;;;;5056445;28;20193;-78
2022/02/21 04:39:04;;;;;;;1.73;1.07;;;6.20;99.90;;;;;;5054292;28;20182;-78
2022/02/21 04:41:30;;;;;;;0.93;0.93;;;6.00;99.90;;;;;;5055600;28;20177;-78
2022/02/21 04:43:56;;;;;;;2.50;0.97;;;6.20;99.90;;;;;;5056954;28;20182;-78
2022/02/21 04:46:22;;;;;;;0.97;0.97;;;6.30;99.90;;;;;;5054544;28;20213;-78
2022/02/21 04:48:48;;;;;;;1.00;1.00;;;6.30;99.90;;;;;;5055641;28;20186;-78
2022/02/21 04:51:14;;;;;;;1.17;0.80;;;6.40;99.90;;;;;;5055256;28;20590;-78
2022/02/21 04:53:40;;;;;;;1.70;0.80;;;6.40;99.90;;;;;;5055306;28;20233;-78
2022/02/21 04:56:05;;;;;;;0.90;0.90;;;6.40;99.90;;;;;;5057921;28;20412;-79
2022/02/21 04:58:31;;;;;;;0.70;0.70;;;6.30;99.90;;;;;;5057037;28;20533;-79
2022/02/21 05:00:57;;;;;;;1.60;1.50;;;6.40;99.90;;;;;;5057196;28;20200;-78
2022/02/21 05:03:22;;;;;;;0.80;0.80;;;6.40;99.90;;;;;;5053930;28;20182;-76
2022/02/21 05:05:48;;;;;;;1.43;0.90;;;6.40;99.90;;;;;;5054423;28;20193;-79
2022/02/21 05:08:14;;;;;;;0.60;0.60;;;6.50;99.90;;;;;;5055508;28;20660;-78
2022/02/21 05:10:40;;;;;;;1.00;0.90;;;6.50;99.90;;;;;;5058322;28;20274;-79
2022/02/21 05:13:05;;;;;;;0.70;0.70;;;6.40;99.90;;;;;;5055628;28;20223;-78
2022/02/21 05:15:31;;;;;;;1.77;0.90;;;6.40;99.90;;;;;;5055532;28;20188;-78
2022/02/21 05:17:57;;;;;;;0.80;0.80;;;6.50;99.90;;;;;;5056427;28;20178;-79
2022/02/21 05:20:23;;;;;;;1.07;1.00;;;6.50;99.90;;;;;;5052955;28;20247;-77
2022/02/21 05:22:48;;;;;;;1.90;0.80;;;6.50;99.90;;;;;;5055957;28;20180;-79
2022/02/21 05:25:14;;;;;;;1.57;1.47;;;6.50;99.90;;;;;;5057603;28;20185;-79
2022/02/21 05:27:41;;;;;;;2.13;1.37;;;6.50;99.90;;;;;;5059237;28;20194;-78
2022/02/21 05:30:08;;;;;;;0.97;0.93;;;6.50;99.90;;;;;;5058532;28;21180;-78
2022/02/21 05:32:34;;;;;;;1.13;1.00;;;6.50;99.90;;;;;;5058138;28;20185;-78
2022/02/21 05:35:00;;;;;;;1.20;1.10;;;6.50;99.90;;;;;;5060573;28;20249;-78
2022/02/21 05:37:26;;;;;;;0.90;0.90;;;6.70;99.90;;;;;;5059565;28;20178;-78
2022/02/21 05:39:51;;;;;;;0.87;0.87;;;6.80;99.90;;;;;;5057382;28;20196;-78
2022/02/21 05:42:17;;;;;;;2.43;1.13;;;6.80;99.90;;;;;;5062992;28;20267;-78
2022/02/21 05:44:43;;;;;;;0.60;0.60;;;6.90;99.90;;;;;;5059194;28;20186;-79
2022/02/21 05:47:09;;;;;;;0.80;0.80;;;7.00;99.90;;;;;;5059326;28;20229;-79
2022/02/21 05:49:34;;;;;;;0.97;0.70;;;7.00;99.90;;;;;;5059895;28;20201;-77
2022/02/21 05:52:01;;;;;;;0.83;0.83;;;6.90;99.90;;;;;;5058044;28;20195;-79
2022/02/21 05:54:27;;;;;;;1.77;1.03;;;6.70;99.90;;;;;;5059471;28;20521;-78
2022/02/21 05:56:54;;;;;;;1.10;1.00;;;6.40;99.90;;;;;;5061747;28;20183;-78
2022/02/21 05:59:20;;;;;;;0.73;0.73;;;3.70;99.90;;;;;;5060209;28;20202;-79
2022/02/21 06:01:45;;;;;;;0.90;0.90;;;3.50;99.90;;;;;;5061897;28;20175;-78
2022/02/21 06:04:11;;;;;;;0.97;0.97;;;2.20;99.90;;;;;;5061723;28;20188;-78
2022/02/21 06:06:37;;;;;;;0.90;0.90;;;1.70;99.90;;;;;;5061349;28;20205;-79
2022/02/21 06:09:04;;;;;;;0.70;0.70;;;0.90;99.90;;;;;;5060288;28;20174;-78
2022/02/21 06:11:30;;;;;;;1.63;1.00;;;1.10;99.90;;;;;;5060376;28;20175;-79
2022/02/21 06:13:55;;;;;;;0.90;0.90;;;0.60;99.90;;;;;;5059001;28;20420;-79
2022/02/21 06:16:22;;;;;;;1.00;0.97;;;0.50;99.90;;;;;;5060876;28;20503;-79
2022/02/21 06:18:47;;;;;;;1.30;1.20;;;0.30;99.90;;;;;;5058526;28;20670;-79
2022/02/21 06:21:13;;;;;;;1.10;1.00;;;0.30;99.90;;;;;;5057950;28;20440;-78
2022/02/21 06:23:39;;;;;;;1.20;1.20;;;0.30;99.90;;;;;;5059154;28;20185;-78
2022/02/21 06:26:05;;;;;;;0.90;0.90;;;0.20;99.90;;;;;;5067611;28;20185;-79
2022/02/21 06:28:31;;;;;;;2.10;1.30;;;0.20;99.90;;;;;;5063378;28;20219;-78
2022/02/21 06:30:57;;;;;;;1.03;1.03;;;0.20;99.90;;;;;;5062989;28;20428;-79
2022/02/21 06:33:23;;;;;;;1.13;1.03;;;0.10;99.90;;;;;;5062805;28;20169;-79
2022/02/21 06:35:49;;;;;;;1.00;0.90;;;0.30;99.90;;;;;;5059610;28;20400;-78
2022/02/21 06:38:15;;;;;;;2.93;1.97;;;0.10;99.90;;;;;;5059521;28;20416;-78
2022/02/21 06:40:40;;;;;;;0.83;0.83;;;0.50;99.90;;;;;;5059876;28;20193;-79
2022/02/21 06:43:06;;;;;;;0.87;0.87;;;0.60;99.90;;;;;;5062587;28;20234;-79
2022/02/21 06:45:32;;;;;;;1.53;1.43;;;0.00;99.90;;;;;;5063306;28;20193;-79
2022/02/21 06:47:58;;;;;;;3.47;2.50;;;0.10;99.90;;;;;;5061989;28;20244;-79
2022/02/21 06:50:25;;;;;;;2.37;1.53;;;0.10;99.90;;;;;;5061764;28;20201;-80
2022/02/21 06:52:51;;;;;;;3.73;2.40;;;1.80;99.90;;;;;;5063144;28;20502;-79
2022/02/21 06:55:17;;;;;;;3.53;1.80;;;0.10;99.90;;;;;;5063058;28;20416;-79
2022/02/21 06:57:46;;;;;;;1.97;1.33;;;0.70;99.90;;;;;;5062445;28;20420;-79
2022/02/21 07:00:13;;;;;;;2.43;1.43;;;0.20;99.90;;;;;;5062347;28;20319;-79
2022/02/21 07:02:39;;;;;;;1.97;1.50;;;0.20;99.90;;;;;;5058675;28;20424;-80
2022/02/21 07:05:05;;;;;;;6.10;3.07;;;0.30;99.90;;;;;;5060291;28;20427;-79
2022/02/21 07:07:32;;;;;;;3.33;1.87;;;0.50;99.90;;;;;;5058362;28;20225;-80
2022/02/21 07:09:58;;;;;;;1.30;1.17;;;0.50;99.90;;;;;;5058124;28;20432;-80
2022/02/21 07:12:24;;;;;;;1.20;1.00;;;0.50;99.90;;;;;;5062147;28;20427;-80
2022/02/21 07:14:49;;;;;;;1.23;1.17;;;0.60;99.90;;;;;;5059707;28;20169;-80
2022/02/21 07:17:15;;;;;;;3.93;1.60;;;0.60;99.90;;;;;;5055904;28;20514;-79
2022/02/21 07:19:41;;;;;;;0.90;0.90;;;0.70;99.90;;;;;;5056014;28;20575;-78
2022/02/21 07:22:06;;;;;;;1.13;1.00;;;0.70;99.90;;;;;;5054578;28;20640;-80
2022/02/21 07:24:32;;;;;;;3.40;1.30;;;0.70;99.90;;;;;;5056102;28;20182;-80
2022/02/21 07:27:00;;;;;;;1.97;1.00;;;0.80;99.90;;;;;;5054480;28;20208;-80
2022/02/21 07:29:26;;;;;;;2.40;1.17;;;0.90;99.90;;;;;;5052994;28;20208;-79
2022/02/21 07:31:52;;;;;;;4.80;1.40;;;1.00;99.90;;;;;;5054658;28;20414;-81
2022/02/21 07:34:18;;;;;;;2.87;1.30;;;1.60;99.90;;;;;;5055361;28;20512;-81
2022/02/21 07:36:44;;;;;;;1.63;1.20;;;;;;;;;;5060995;28;20416;-81
2022/02/21 07:39:10;;;;;;;3.97;1.80;;;1.00;99.90;;;;;;5059461;28;20420;-80
2022/02/21 07:41:39;;;;;;;1.87;1.03;;;;;;;;;;5060211;28;20431;-81
2022/02/21 07:44:05;;;;;;;1.70;1.40;;;1.10;99.90;;;;;;5057770;28;20189;-81
2022/02/21 07:46:31;;;;;;;2.10;1.60;;;;;;;;;;5057769;28;20459;-81
2022/02/21 07:48:57;;;;;;;1.97;1.30;;;;;;;;;;5057259;28;20631;-81
2022/02/21 07:51:23;;;;;;;2.53;1.63;;;1.20;99.90;;;;;;5057379;28;20475;-81
2022/02/21 07:53:49;;;;;;;3.27;1.40;;;2.20;99.90;;;;;;5058069;28;20459;-80
2022/02/21 07:56:15;;;;;;;2.20;1.20;;;;;;;;;;5056099;28;20207;-79
2022/02/21 07:58:40;;;;;;;2.23;1.30;;;1.30;99.90;;;;;;5058356;28;20184;-80
2022/02/21 08:01:06;;;;;;;2.03;1.30;;;2.50;99.90;;;;;;5058224;28;20613;-80
2022/02/21 08:03:36;;;;;;;2.10;1.70;;;;;;;;;;5059071;28;20757;-79
2022/02/21 08:06:06;;;;;;;4.00;2.03;;;1.30;99.90;;;;;;5056602;28;20550;-80
2022/02/21 08:08:33;;;;;;;2.13;1.67;;;;;;;;;;5057874;28;20947;-79
2022/02/21 08:10:59;;;;;;;2.57;1.40;;;;;;;;;;5058705;28;20428;-80
2022/02/21 08:13:25;;;;;;;1.30;1.20;;;;;;;;;;5056050;28;20436;-81
2022/02/21 08:15:51;;;;;;;1.30;1.30;;;;;;;;;;5056436;28;20932;-79
2022/02/21 08:18:17;;;;;;;1.63;1.53;;;1.30;99.90;;;;;;5056345;28;20412;-79
2022/02/21 08:20:43;;;;;;;1.17;1.07;;;;;;;;;;5055770;28;20201;-79
2022/02/21 08:23:09;;;;;;;2.00;1.70;;;1.40;99.90;;;;;;5057408;28;20177;-80
2022/02/21 08:25:35;;;;;;;2.63;1.53;;;1.40;99.90;;;;;;5056820;28;20491;-79
2022/02/21 08:28:01;;;;;;;1.80;1.27;;;;;;;;;;5055141;28;20214;-80
2022/02/21 08:30:27;;;;;;;4.63;1.50;;;1.40;99.90;;;;;;5054186;28;20435;-81
2022/02/21 08:32:53;;;;;;;3.30;1.50;;;;;;;;;;5063788;28;20423;-80
2022/02/21 08:35:20;;;;;;;1.60;1.50;;;1.50;99.90;;;;;;5061690;28;20653;-80
2022/02/21 08:37:47;;;;;;;1.80;1.40;;;1.50;99.90;;;;;;5060871;28;20527;-81
2022/02/21 08:40:15;;;;;;;1.77;1.30;;;1.60;99.90;;;;;;5059636;28;20969;-80
2022/02/21 08:42:41;;;;;;;1.57;1.30;;;1.60;99.90;;;;;;5059894;28;20493;-81
2022/02/21 08:45:09;;;;;;;2.80;1.10;;;1.70;99.90;;;;;;5060472;28;20428;-81
2022/02/21 08:47:37;;;;;;;1.40;1.30;;;1.70;99.90;;;;;;5060051;28;20509;-82
2022/02/21 08:50:05;;;;;;;1.60;1.40;;;1.70;99.90;;;;;;5061405;28;20925;-80
2022/02/21 08:52:31;;;;;;;2.97;1.30;;;1.60;99.90;;;;;;5061491;28;20434;-81
2022/02/21 08:54:57;;;;;;;1.90;1.40;;;;;;;;;;5060533;28;20443;-82
2022/02/21 08:57:23;;;;;;;2.23;1.37;;;1.80;99.90;;;;;;5061262;28;20411;-81
2022/02/21 08:59:49;;;;;;;1.20;1.10;;;2.40;99.90;;;;;;5062521;28;20198;-81
2022/02/21 09:02:19;;;;;;;2.10;1.50;;;;;;;;;;5064668;28;20178;-81
2022/02/21 09:04:45;;;;;;;1.70;1.60;;;;;;;;;;5063722;28;20186;-81
2022/02/21 09:07:11;;;;;;;1.67;1.57;;;;;;;;;;5064750;28;20479;-80
2022/02/21 09:09:36;;;;;;;3.23;1.40;;;2.20;99.90;;;;;;5065367;28;20420;-80
2022/02/21 09:12:03;;;;;;;3.97;1.40;;;2.10;99.90;;;;;;5065966;28;20433;-80
2022/02/21 09:14:29;;;;;;;4.00;1.87;;;2.10;99.90;;;;;;5063473;28;20184;-80
2022/02/21 09:16:55;;;;;;;3.47;1.43;;;2.10;99.90;;;;;;5065323;28;20412;-81
2022/02/21 09:19:21;;;;;;;3.10;1.40;;;;;;;;;;5065777;28;20193;-80
2022/02/21 09:21:47;;;;;;;1.77;1.40;;;2.20;99.90;;;;;;5065600;28;20177;-80
2022/02/21 09:24:13;;;;;;;3.17;1.20;;;;;;;;;;5065851;28;20185;-81
2022/02/21 09:26:39;;;;;;;2.37;1.50;;;;;;;;;;5068311;28;20460;-81
2022/02/21 09:29:05;;;;;;;2.63;1.97;;;2.40;99.90;;;;;;5065029;28;20431;-81
2022/02/21 09:31:30;;;;;;;3.57;1.67;;;2.40;99.90;;;;;;5067027;28;20174;-80
2022/02/21 09:33:56;;;;;;;2.07;1.53;;;2.40;99.90;;;;;;5067769;28;20232;-81
2022/02/21 09:36:22;;;;;;;7.17;1.73;;;2.30;99.90;;;;;;5067340;28;20223;-81
2022/02/21 09:38:48;;;;;;;1.63;1.50;;;2.30;99.90;;;;;;5066327;28;20174;-80
2022/02/21 09:41:13;;;;;;;3.60;1.50;;;2.40;99.90;;;;;;5065687;28;20229;-82
2022/02/21 09:43:39;;;;;;;5.00;2.93;;;3.00;99.90;;;;;;5064491;28;20185;-80
2022/02/21 09:46:10;;;;;;;7.60;2.10;;;2.60;99.90;;;;;;5065613;28;20173;-81
2022/02/21 09:48:37;;;;;;;8.97;2.43;;;2.90;99.90;;;;;;5064151;28;20158;-80
2022/02/21 09:51:04;;;;;;;4.13;2.07;;;3.50;99.90;;;;;;5065333;28;20503;-81
2022/02/21 09:53:32;;;;;;;5.37;1.80;;;3.60;99.90;;;;;;5065921;28;20710;-80
2022/02/21 09:55:58;;;;;;;2.77;1.50;;;3.20;99.90;;;;;;5065050;28;20400;-80
2022/02/21 09:58:25;;;;;;;2.40;1.63;;;3.00;99.90;;;;;;5066067;28;20406;-81
2022/02/21 10:00:52;;;;;;;9.03;2.10;;;2.90;99.90;;;;;;5063304;28;20201;-82
2022/02/21 10:03:44;;;;;;;5.77;3.17;;;3.00;99.90;;;;;;5065006;28;20396;-82
2022/02/21 10:06:15;;;;;;;4.03;1.70;;;3.00;99.90;;;;;;5064566;28;20197;-81
2022/02/21 10:08:51;;;;;;;1.83;1.47;;;2.90;99.90;;;;;;5063706;28;20784;-80
2022/02/21 10:11:32;;;;;;;4.83;1.90;;;2.80;99.90;;;;;;5063337;28;20455;-81
2022/02/21 10:14:28;;;;;;;4.40;1.53;;;2.70;99.90;;;;;;5064254;28;20435;-81
2022/02/21 10:16:59;;;;;;;3.97;1.40;;;2.40;99.90;;;;;;5060299;28;20269;-81
2022/02/21 10:19:36;;;;;;;6.40;2.30;;;2.70;99.90;;;;;;5070023;28;20201;-79
2022/02/21 10:22:10;;;;;;;4.20;2.10;;;2.50;99.90;;;;;;5067073;28;20215;-81
2022/02/21 10:24:49;;;;;;;9.80;3.17;;;2.50;99.90;;;;;;5056812;28;20428;-80
2022/02/21 10:27:18;;;;;;;1.97;1.20;;;2.30;99.90;;;;;;5056769;28;20189;-81
2022/02/21 10:29:46;;;;;;;1.83;1.43;;;2.50;99.90;;;;;;5055934;28;20443;-81
2022/02/21 10:32:15;;;;;;;5.27;1.60;;;2.70;99.90;;;;;;5056913;28;20768;-81
2022/02/21 10:34:42;;;;;;;1.97;1.40;;;2.70;99.90;;;;;;5054808;28;20498;-81
2022/02/21 10:37:08;;;;;;;5.43;2.00;;;;;;;;;;5055016;28;20420;-80
2022/02/21 10:39:35;;;;;;;3.60;1.60;;;2.70;99.90;;;;;;5057979;28;20435;-80
2022/02/21 10:42:02;;;;;;;2.23;1.50;;;2.70;99.90;;;;;;5066839;28;20412;-81
2022/02/21 10:44:35;;;;;;;4.27;1.90;;;3.00;99.90;;;;;;5061948;28;20545;-80
2022/02/21 10:47:05;;;;;;;2.53;1.50;;;2.90;99.90;;;;;;5062591;28;20229;-80
2022/02/21 10:49:32;;;;;;;1.97;1.30;;;;;;;;;;5062007;28;20783;-80
2022/02/21 10:52:00;;;;;;;4.80;1.90;;;3.30;99.90;;;;;;5062404;28;20497;-80
2022/02/21 10:54:35;;;;;;;3.73;1.50;;;3.30;99.90;;;;;;5062263;28;20416;-81
2022/02/21 10:57:00;;;;;;;2.37;1.77;;;4.70;99.90;;;;;;5061726;28;20407;-81
2022/02/21 10:59:30;;;;;;;5.13;1.70;;;4.70;99.90;;;;;;5062614;28;20194;-81
2022/02/21 11:01:58;;;;;;;2.67;1.40;;;5.00;99.90;;;;;;5062170;28;20173;-81
2022/02/21 11:04:24;;;;;;;4.43;2.07;;;5.10;99.90;;;;;;5059224;28;20177;-82
2022/02/21 11:06:52;;;;;;;4.73;1.80;;;5.50;99.90;;;;;;5059291;28;20210;-81
2022/02/21 11:09:20;;;;;;;3.53;1.57;;;6.10;99.90;;;;;;5060007;28;20693;-80
2022/02/21 11:11:51;;;;;;;5.60;1.87;;;6.50;99.90;;;;;;5060172;28;20171;-82
2022/02/21 11:14:19;;;;;;;3.97;1.63;;;6.70;99.90;;;;;;5060445;28;20175;-81
2022/02/21 11:16:47;;;;;;;3.17;1.27;;;5.80;99.90;;;;;;5059260;28;20176;-82
2022/02/21 11:19:15;;;;;;;4.97;1.13;;;5.10;99.90;;;;;;5060259;28;20198;-82
2022/02/21 11:21:44;;;;;;;4.70;1.40;;;4.60;99.90;;;;;;5061345;28;20179;-81
2022/02/21 11:24:13;;;;;;;4.70;1.50;;;4.20;99.90;;;;;;5058615;28;20174;-81
2022/02/21 11:26:48;;;;;;;5.03;1.53;;;3.70;99.90;;;;;;5058399;28;20203;-82
2022/02/21 11:29:17;;;;;;;5.20;1.37;;;;;;;;;;5060725;28;20619;-80
2022/02/21 11:31:44;;;;;;;2.37;1.17;;;;;;;;;;5060454;28;20646;-81
2022/02/21 11:34:10;;;;;;;7.93;1.53;;;;;;;;;;5059553;28;21031;-81
2022/02/21 11:36:42;;;;;;;8.17;2.10;;;3.80;99.90;;;;;;5059530;28;20177;-80
2022/02/21 11:39:26;;;;;;;9.00;2.30;;;4.10;99.90;;;;;;5059401;28;20159;-81
2022/02/21 11:42:18;;;;;;;9.40;2.43;;;4.50;99.90;;;;;;5058158;28;20182;-80
2022/02/21 11:44:53;;;;;;;5.03;2.07;;;;;;;;;;5058857;28;20189;-81
2022/02/21 11:47:42;;;;;;;5.20;1.87;;;5.90;99.90;;;;;;5057809;28;20209;-79
2022/02/21 11:50:17;;;;;;;2.87;1.07;;;5.60;99.90;;;;;;5061518;28;20204;-80
2022/02/21 11:52:48;;;;;;;5.30;1.80;;;5.00;99.90;;;;;;5061708;28;20178;-81
2022/02/21 11:55:29;;;;;;;6.30;1.57;;;4.50;99.90;;;;;;5060957;28;20171;-79
2022/02/21 11:58:18;;;;;;;2.17;1.33;;;4.20;99.90;;;;;;5062122;28;20178;-80
2022/02/21 12:00:49;;;;;;;1.47;0.80;;;3.90;99.90;;;;;;5057036;28;20209;-79
2022/02/21 12:03:26;;;;;;;3.13;1.70;;;3.40;99.90;;;;;;5061426;28;20243;-80
2022/02/21 12:05:58;;;;;;;5.23;1.90;;;4.20;99.90;;;;;;5061480;28;20202;-80
2022/02/21 12:08:29;;;;;;;10.80;1.73;;;4.80;99.90;;;;;;5061980;28;20197;-81
2022/02/21 12:11:04;;;;;;;4.53;1.53;;;5.70;99.90;;;;;;5062548;28;20194;-80
2022/02/21 12:13:35;;;;;;;6.00;1.47;;;5.60;99.90;;;;;;5063879;28;20177;-80
2022/02/21 12:16:02;;;;;;;3.23;1.43;;;5.30;99.90;;;;;;5062737;28;20184;-81
2022/02/21 12:18:30;;;;;;;3.33;1.20;;;4.90;99.90;;;;;;5061439;28;20598;-80
2022/02/21 12:21:18;;;;;;;3.40;1.50;;;4.90;99.90;;;;;;5063056;28;20203;-79
2022/02/21 12:23:57;;;;;;;2.80;1.50;;;5.10;99.90;;;;;;5060314;28;20639;-79
2022/02/21 12:26:35;;;;;;;3.13;1.17;;;5.20;99.90;;;;;;5061564;28;20184;-80
2022/02/21 12:29:20;;;;;;;4.03;1.23;;;5.90;99.90;;;;;;5061908;28;20154;-81
2022/02/21 12:31:59;;;;;;;2.20;1.50;;;6.00;99.90;;;;;;5059943;28;20246;-80
2022/02/21 12:34:27;;;;;;;4.73;1.00;;;7.00;99.90;;;;;;5061002;28;20228;-79
2022/02/21 12:37:02;;;;;;;1.63;0.93;;;6.20;99.90;;;;;;5064776;28;20253;-80
2022/02/21 12:39:32;;;;;;;4.43;1.27;;;6.20;99.90;;;;;;5064482;28;20283;-80
2022/02/21 12:41:58;;;;;;;5.30;1.30;;;6.30;99.90;;;;;;5063608;28;20184;-80
2022/02/21 12:44:24;;;;;;;4.70;1.30;;;7.20;99.90;;;;;;5063531;28;20266;-79
2022/02/21 12:47:00;;;;;;;2.90;1.00;;;7.20;99.90;;;;;;5064755;28;20233;-80
2022/02/21 12:49:39;;;;;;;3.23;1.50;;;7.50;99.90;;;;;;5068653;28;20228;-78
2022/02/21 12:52:07;;;;;;;5.07;1.30;;;7.40;99.90;;;;;;5065886;28;20173;-81
2022/02/21 12:54:35;;;;;;;6.53;1.63;;;6.70;99.90;;;;;;5063051;28;20191;-80
2022/02/21 12:57:02;;;;;;;5.37;1.90;;;6.90;99.90;;;;;;5063915;28;20192;-80
2022/02/21 12:59:37;;;;;;;4.00;1.50;;;8.20;99.90;;;;;;5064511;28;20227;-79
2022/02/21 13:02:05;;;;;;;3.80;1.63;;;8.40;99.90;;;;;;5064419;28;20173;-79
2022/02/21 13:04:33;;;;;;;4.57;1.37;;;8.90;99.90;;;;;;5063998;28;20204;-81
2022/02/21 13:07:00;;;;;;;4.13;1.40;;;9.40;99.90;;;;;;5064314;28;20245;-80
2022/02/21 13:09:26;;;;;;;4.40;2.00;;;7.90;99.90;;;;;;5064575;28;20208;-80
2022/02/21 13:11:54;;;;;;;1.70;1.03;;;6.70;99.90;;;;;;5061762;28;20204;-80